createdAt,value
2018-03-27T00:00:35.490Z,22.15
2018-03-27T00:03:06.427Z,23.02
2018-03-27T00:05:36.549Z,22.80
2018-03-27T00:08:06.321Z,26.00
2018-03-27T00:10:36.412Z,26.30
2018-03-27T00:13:06.418Z,24.90
2018-03-27T00:15:36.447Z,23.40
2018-03-27T00:18:07.147Z,23.50
2018-03-27T00:20:37.208Z,25.58
2018-03-27T00:23:07.423Z,26.23
2018-03-27T00:25:37.390Z,23.95
2018-03-27T00:28:18.649Z,24.30
2018-03-27T00:31:05.402Z,23.90
2018-03-27T00:33:52.109Z,25.45
2018-03-27T00:36:39.137Z,25.12
2018-03-27T00:39:25.768Z,24.30
2018-03-27T00:45:03.672Z,25.60
2018-03-27T00:47:33.068Z,25.75
2018-03-27T00:50:02.518Z,24.10
2018-03-27T00:52:32.541Z,24.52
2018-03-27T00:55:02.498Z,24.83
2018-03-27T00:57:32.365Z,24.55
2018-03-27T01:00:02.367Z,24.35
2018-03-27T01:02:32.017Z,26.87
2018-03-27T01:05:07.401Z,25.98
2018-03-27T01:07:37.342Z,26.98
2018-03-27T01:10:07.298Z,27.90
2018-03-27T01:12:37.357Z,26.30
2018-03-27T01:15:07.334Z,27.73
2018-03-27T01:17:37.282Z,25.08
2018-03-27T01:20:07.246Z,26.40
2018-03-27T01:22:37.325Z,27.15
2018-03-27T01:25:07.439Z,25.30
2018-03-27T01:27:37.420Z,27.35
2018-03-27T01:30:07.361Z,27.25
2018-03-27T01:32:37.599Z,28.33
2018-03-27T01:35:07.624Z,26.85
2018-03-27T01:37:37.665Z,26.08
2018-03-27T01:40:07.585Z,26.48
2018-03-27T01:42:37.552Z,27.85
2018-03-27T01:45:07.246Z,24.45
2018-03-27T01:47:37.165Z,27.35
2018-03-27T01:50:07.116Z,26.70
2018-03-27T01:52:37.176Z,25.55
2018-03-27T01:55:07.150Z,26.92
2018-03-27T01:57:37.097Z,26.33
2018-03-27T02:00:06.697Z,27.40
2018-03-27T02:02:36.697Z,26.92
2018-03-27T02:05:06.635Z,25.62
2018-03-27T02:07:36.613Z,26.25
2018-03-27T02:10:06.629Z,27.40
2018-03-27T02:12:41.900Z,24.37
2018-03-27T02:15:17.114Z,25.50
2018-03-27T02:17:52.327Z,25.85
2018-03-27T02:20:27.584Z,25.37
2018-03-27T02:26:07.176Z,26.10
2018-03-27T02:28:37.789Z,26.60
2018-03-27T02:31:07.826Z,25.90
2018-03-27T02:33:37.809Z,24.02
2018-03-27T02:36:07.746Z,25.35
2018-03-27T02:38:37.801Z,24.77
2018-03-27T02:41:07.836Z,25.17
2018-03-27T02:43:37.857Z,24.67
2018-03-27T02:46:07.653Z,24.67
2018-03-27T02:48:37.570Z,26.00
2018-03-27T02:51:07.324Z,27.15
2018-03-27T02:53:37.327Z,25.30
2018-03-27T02:56:07.263Z,24.90
2018-03-27T02:58:37.044Z,25.30
2018-03-27T03:01:06.264Z,25.10
2018-03-27T03:03:36.395Z,24.60
2018-03-27T03:06:06.418Z,24.27
2018-03-27T03:08:37.119Z,26.25
2018-03-27T03:11:07.043Z,23.40
2018-03-27T03:13:36.983Z,25.20
2018-03-27T03:16:06.953Z,26.10
2018-03-27T03:18:37.003Z,24.12
2018-03-27T03:21:07.003Z,24.85
2018-03-27T03:23:37.050Z,24.63
2018-03-27T03:26:06.952Z,24.83
2018-03-27T03:28:36.929Z,23.20
2018-03-27T03:31:06.873Z,26.77
2018-03-27T03:33:36.891Z,25.67
2018-03-27T03:36:06.934Z,26.73
2018-03-27T03:38:36.922Z,25.67
2018-03-27T03:41:06.887Z,25.95
2018-03-27T03:43:36.896Z,24.65
2018-03-27T03:46:07.241Z,24.60
2018-03-27T03:48:36.883Z,24.15
2018-03-27T03:51:06.878Z,25.92
2018-03-27T03:53:36.864Z,27.23
2018-03-27T03:56:06.826Z,25.08
2018-03-27T03:58:36.875Z,24.20
2018-03-27T04:01:06.997Z,24.90
2018-03-27T04:03:36.943Z,26.15
2018-03-27T04:06:06.929Z,26.23
2018-03-27T04:08:37.133Z,25.48
2018-03-27T04:11:07.959Z,24.83
2018-03-27T04:13:37.823Z,28.77
2018-03-27T04:16:07.813Z,25.95
2018-03-27T04:18:37.979Z,25.88
2018-03-27T04:21:07.976Z,28.95
2018-03-27T04:23:37.921Z,27.23
2018-03-27T04:26:07.581Z,24.77
2018-03-27T04:28:37.879Z,24.58
2018-03-27T04:31:08.652Z,26.67
2018-03-27T04:33:38.728Z,27.40
2018-03-27T04:36:08.670Z,25.37
2018-03-27T04:38:38.875Z,27.55
2018-03-27T04:41:08.736Z,24.50
2018-03-27T04:43:38.613Z,26.90
2018-03-27T04:46:08.484Z,25.45
2018-03-27T04:48:38.404Z,25.52
2018-03-27T04:51:08.251Z,27.05
2018-03-27T04:53:38.269Z,26.87
2018-03-27T04:56:08.136Z,27.35
2018-03-27T04:58:38.092Z,26.85
2018-03-27T05:01:07.923Z,25.02
2018-03-27T05:03:37.773Z,27.23
2018-03-27T05:06:07.680Z,25.98
2018-03-27T05:08:37.527Z,25.58
2018-03-27T05:11:07.419Z,26.58
2018-03-27T05:13:37.291Z,29.85
2018-03-27T05:16:07.139Z,27.35
2018-03-27T05:18:36.989Z,27.05
2018-03-27T05:21:06.878Z,26.75
2018-03-27T05:23:36.739Z,24.73
2018-03-27T05:26:06.576Z,25.40
2018-03-27T05:28:36.504Z,28.08
2018-03-27T05:31:06.443Z,26.60
2018-03-27T05:33:36.062Z,27.95
2018-03-27T05:36:05.965Z,26.50
2018-03-27T05:38:35.850Z,25.50
2018-03-27T05:41:05.905Z,26.48
2018-03-27T05:43:39.658Z,25.60
2018-03-27T05:46:09.384Z,26.62
2018-03-27T05:48:39.283Z,26.70
2018-03-27T05:51:09.174Z,25.33
2018-03-27T05:53:39.220Z,27.02
2018-03-27T05:56:09.073Z,24.80
2018-03-27T05:58:39.058Z,24.92
2018-03-27T06:01:09.046Z,25.48
2018-03-27T06:03:38.914Z,26.67
2018-03-27T06:06:08.801Z,27.17
2018-03-27T06:08:38.771Z,27.83
2018-03-27T06:11:08.625Z,26.45
2018-03-27T06:13:38.492Z,26.05
2018-03-27T06:16:08.489Z,25.15
2018-03-27T06:18:38.519Z,26.40
2018-03-27T06:21:08.605Z,25.42
2018-03-27T06:23:38.634Z,26.00
2018-03-27T06:26:08.540Z,27.17
2018-03-27T06:28:38.622Z,26.90
2018-03-27T06:31:08.449Z,27.05
2018-03-27T06:33:38.349Z,26.58
2018-03-27T06:36:12.457Z,26.00
2018-03-27T06:38:42.453Z,26.00
2018-03-27T06:41:12.349Z,24.08
2018-03-27T06:43:42.193Z,26.35
2018-03-27T06:46:12.134Z,24.95
2018-03-27T06:48:41.972Z,25.75
2018-03-27T06:51:11.825Z,25.67
2018-03-27T06:53:41.688Z,27.27
2018-03-27T06:56:11.552Z,26.62
2018-03-27T06:58:41.393Z,26.23
2018-03-27T07:01:11.296Z,26.87
2018-03-27T07:03:41.291Z,26.30
2018-03-27T07:06:11.323Z,26.55
2018-03-27T07:08:41.151Z,26.40
2018-03-27T07:11:11.026Z,26.42
2018-03-27T07:13:40.944Z,26.83
2018-03-27T07:16:10.731Z,26.60
2018-03-27T07:18:40.908Z,26.08
2018-03-27T07:21:10.981Z,26.85
2018-03-27T07:23:40.844Z,25.35
2018-03-27T07:26:10.573Z,26.65
2018-03-27T07:28:40.421Z,26.27
2018-03-27T07:31:10.756Z,27.02
2018-03-27T07:33:40.689Z,24.83
2018-03-27T07:36:10.606Z,26.00
2018-03-27T07:38:40.585Z,26.98
2018-03-27T07:41:10.428Z,23.33
2018-03-27T07:43:40.308Z,24.25
2018-03-27T07:46:10.225Z,25.67
2018-03-27T07:48:40.109Z,22.42
2018-03-27T07:51:09.965Z,25.17
2018-03-27T07:53:40.072Z,23.08
2018-03-27T07:56:09.977Z,24.52
2018-03-27T07:58:39.974Z,23.52
2018-03-27T08:01:09.825Z,24.35
2018-03-27T08:03:39.661Z,25.00
2018-03-27T08:06:09.527Z,23.20
2018-03-27T08:08:39.465Z,24.00
2018-03-27T08:11:09.196Z,24.90
2018-03-27T08:13:39.193Z,24.00
2018-03-27T08:16:09.051Z,22.02
2018-03-27T08:18:39.117Z,21.50
2018-03-27T08:21:09.032Z,23.62
2018-03-27T08:23:38.886Z,26.12
2018-03-27T08:26:08.764Z,24.77
2018-03-27T08:28:38.678Z,25.10
2018-03-27T08:31:09.677Z,24.40
2018-03-27T08:33:39.528Z,24.37
2018-03-27T08:36:09.360Z,24.60
2018-03-27T08:38:39.237Z,24.25
2018-03-27T08:41:09.098Z,24.52
2018-03-27T08:43:38.985Z,26.50
2018-03-27T08:46:09.255Z,25.40
2018-03-27T08:48:39.188Z,24.98
2018-03-27T08:51:09.168Z,25.40
2018-03-27T08:53:39.083Z,27.13
2018-03-27T08:56:08.982Z,26.42
2018-03-27T08:58:39.094Z,26.30
2018-03-27T09:01:08.965Z,24.70
2018-03-27T09:03:38.930Z,26.85
2018-03-27T09:06:08.769Z,27.80
2018-03-27T09:08:38.685Z,27.95
2018-03-27T09:11:08.770Z,26.70
2018-03-27T09:13:38.640Z,26.55
2018-03-27T09:16:08.213Z,25.60
2018-03-27T09:18:38.104Z,26.70
2018-03-27T09:21:07.959Z,26.15
2018-03-27T09:23:37.848Z,25.33
2018-03-27T09:26:07.686Z,26.52
2018-03-27T09:28:37.586Z,25.08
2018-03-27T09:31:07.406Z,25.92
2018-03-27T09:33:37.887Z,25.25
2018-03-27T09:36:08.127Z,26.20
2018-03-27T09:38:38.001Z,25.27
2018-03-27T09:41:07.851Z,26.77
2018-03-27T09:43:37.688Z,26.87
2018-03-27T09:46:07.538Z,26.85
2018-03-27T09:48:37.145Z,23.95
2018-03-27T09:51:07.059Z,24.63
2018-03-27T09:53:36.892Z,26.15
2018-03-27T09:56:06.749Z,27.13
2018-03-27T09:58:36.337Z,23.73
2018-03-27T10:01:09.510Z,24.52
2018-03-27T10:03:39.370Z,25.98
2018-03-27T10:06:09.214Z,23.67
2018-03-27T10:08:39.120Z,23.12
2018-03-27T10:11:09.017Z,19.80
2018-03-27T10:13:38.868Z,19.37
2018-03-27T10:16:08.170Z,17.60
2018-03-27T10:18:38.899Z,17.98
2018-03-27T10:21:08.744Z,16.35
2018-03-27T10:23:38.746Z,16.98
2018-03-27T10:26:08.582Z,16.35
2018-03-27T10:28:39.394Z,14.85
2018-03-27T10:31:09.324Z,15.88
2018-03-27T10:33:39.196Z,13.73
2018-03-27T10:36:09.066Z,14.68
2018-03-27T10:38:38.900Z,13.75
2018-03-27T10:41:08.730Z,14.23
2018-03-27T10:43:38.600Z,13.65
2018-03-27T10:46:08.441Z,13.60
2018-03-27T10:48:38.294Z,13.93
2018-03-27T10:51:08.148Z,12.55
2018-03-27T10:53:38.514Z,13.43
2018-03-27T10:56:08.391Z,12.35
2018-03-27T10:58:38.225Z,13.48
2018-03-27T11:01:08.140Z,12.30
2018-03-27T11:03:38.003Z,12.70
2018-03-27T11:06:07.838Z,12.93
2018-03-27T11:08:38.703Z,14.40
2018-03-27T11:11:08.551Z,13.50
2018-03-27T11:13:38.397Z,13.77
2018-03-27T11:16:08.280Z,14.93
2018-03-27T11:18:38.133Z,15.40
2018-03-27T11:21:08.066Z,16.00
2018-03-27T11:23:38.485Z,16.98
2018-03-27T11:26:08.357Z,16.12
2018-03-27T11:28:38.208Z,19.25
2018-03-27T11:31:07.729Z,18.52
2018-03-27T11:33:37.583Z,17.83
2018-03-27T11:36:07.413Z,17.33
2018-03-27T11:38:37.319Z,16.48
2018-03-27T11:41:07.137Z,16.23
2018-03-27T11:43:37.021Z,16.23
2018-03-27T11:46:06.930Z,16.45
2018-03-27T11:48:36.836Z,15.18
2018-03-27T11:51:06.414Z,16.90
2018-03-27T11:53:36.001Z,16.10
2018-03-27T11:56:05.570Z,15.80
2018-03-27T11:58:35.130Z,16.57
2018-03-27T12:01:04.676Z,15.77
2018-03-27T12:03:34.259Z,15.70
2018-03-27T12:06:03.826Z,17.30
2018-03-27T12:08:33.393Z,14.83
2018-03-27T12:11:02.774Z,14.97
2018-03-27T12:13:32.336Z,14.00
2018-03-27T12:16:01.945Z,15.53
2018-03-27T12:18:31.535Z,15.70
2018-03-27T12:21:01.097Z,14.17
2018-03-27T12:23:30.945Z,13.77
2018-03-27T12:26:00.480Z,13.90
2018-03-27T12:28:30.065Z,14.43
2018-03-27T12:30:59.672Z,11.27
2018-03-27T12:33:29.202Z,11.90
2018-03-27T12:35:58.767Z,11.20
2018-03-27T12:38:28.350Z,10.67
2018-03-27T12:40:57.904Z,12.67
2018-03-27T12:43:27.472Z,13.23
2018-03-27T12:45:57.044Z,14.30
2018-03-27T12:48:26.603Z,13.03
2018-03-27T12:50:56.187Z,13.10
2018-03-27T12:53:25.763Z,11.20
2018-03-27T12:55:55.349Z,10.90
2018-03-27T12:58:24.914Z,12.13
2018-03-27T13:00:54.464Z,11.43
2018-03-27T13:03:24.028Z,11.90
2018-03-27T13:05:53.660Z,10.00
2018-03-27T13:08:23.229Z,11.37
2018-03-27T13:10:52.805Z,8.97
2018-03-27T13:13:22.366Z,9.50
2018-03-27T13:15:51.740Z,11.53
2018-03-27T13:18:21.330Z,10.43
2018-03-27T13:20:50.943Z,11.53
2018-03-27T13:23:21.525Z,12.00
2018-03-27T13:25:51.137Z,14.13
2018-03-27T13:28:20.755Z,12.67
2018-03-27T13:30:50.451Z,12.87
2018-03-27T13:33:20.016Z,11.67
2018-03-27T13:35:50.190Z,13.63
2018-03-27T13:38:20.134Z,13.03
2018-03-27T13:40:49.785Z,12.27
2018-03-27T13:43:19.715Z,12.30
2018-03-27T13:45:53.822Z,12.90
2018-03-27T13:48:23.680Z,13.25
2018-03-27T13:50:53.746Z,11.65
2018-03-27T13:53:23.822Z,10.60
2018-03-27T13:55:54.263Z,11.33
2018-03-27T13:58:23.873Z,10.40
2018-03-27T14:00:53.437Z,12.10
2018-03-27T14:03:23.029Z,11.63
2018-03-27T14:05:52.585Z,10.83
2018-03-27T14:08:22.170Z,12.00
2018-03-27T14:10:51.777Z,11.07
2018-03-27T14:13:21.328Z,11.30
2018-03-27T14:15:50.896Z,10.40
2018-03-27T14:18:20.462Z,10.00
2018-03-27T14:20:50.012Z,10.90
2018-03-27T14:23:19.718Z,10.03
2018-03-27T14:25:49.285Z,9.17
2018-03-27T14:28:18.841Z,9.07
2018-03-27T14:30:48.408Z,10.30
2018-03-27T14:33:18.116Z,11.63
2018-03-27T14:35:47.676Z,10.30
2018-03-27T14:38:17.568Z,11.85
2018-03-27T14:40:47.571Z,10.57
2018-03-27T14:43:17.425Z,10.30
2018-03-27T14:45:47.276Z,11.27
2018-03-27T14:48:17.098Z,11.23
2018-03-27T14:50:46.979Z,11.32
2018-03-27T14:53:16.818Z,10.95
2018-03-27T14:55:46.743Z,10.80
2018-03-27T14:58:16.608Z,10.82
2018-03-27T15:00:46.465Z,10.88
2018-03-27T15:03:16.333Z,9.80
2018-03-27T15:05:46.404Z,10.35
2018-03-27T15:08:16.266Z,9.63
2018-03-27T15:10:46.109Z,11.10
2018-03-27T15:13:15.999Z,10.52
2018-03-27T15:15:45.846Z,10.30
2018-03-27T15:18:15.769Z,10.40
2018-03-27T15:20:45.607Z,9.88
2018-03-27T15:23:15.488Z,8.90
2018-03-27T15:25:45.341Z,10.80
2018-03-27T15:28:15.932Z,9.52
2018-03-27T15:30:45.854Z,9.80
2018-03-27T15:33:15.721Z,11.10
2018-03-27T15:35:45.542Z,9.70
2018-03-27T15:38:15.383Z,11.40
2018-03-27T15:40:45.211Z,9.93
2018-03-27T15:43:15.047Z,11.23
2018-03-27T15:45:44.915Z,11.75
2018-03-27T15:48:14.806Z,11.12
2018-03-27T15:50:44.650Z,11.20
2018-03-27T15:53:14.523Z,11.20
2018-03-27T15:55:44.388Z,10.98
2018-03-27T15:58:14.972Z,11.52
2018-03-27T16:00:44.871Z,11.55
2018-03-27T16:03:14.726Z,10.93
2018-03-27T16:05:44.586Z,12.40
2018-03-27T16:08:14.443Z,9.70
2018-03-27T16:10:44.279Z,10.18
2018-03-27T16:13:14.173Z,10.73
2018-03-27T16:15:44.167Z,11.50
2018-03-27T16:18:13.676Z,11.68
2018-03-27T16:20:43.611Z,11.12
2018-03-27T16:23:13.481Z,10.95
2018-03-27T16:25:43.437Z,11.15
2018-03-27T16:28:13.273Z,11.55
2018-03-27T16:30:43.228Z,11.18
2018-03-27T16:33:13.623Z,10.95
2018-03-27T16:35:43.637Z,13.50
2018-03-27T16:38:13.515Z,13.48
2018-03-27T16:40:44.071Z,10.38
2018-03-27T16:43:14.157Z,12.35
2018-03-27T16:45:44.056Z,14.38
2018-03-27T16:48:14.114Z,11.73
2018-03-27T16:50:43.968Z,10.80
2018-03-27T16:53:14.151Z,12.30
2018-03-27T16:55:44.368Z,12.02
2018-03-27T16:58:14.198Z,12.07
2018-03-27T17:00:44.047Z,12.90
2018-03-27T17:03:13.922Z,13.70
2018-03-27T17:05:43.781Z,12.70
2018-03-27T17:08:13.649Z,12.37
2018-03-27T17:10:44.553Z,13.98
2018-03-27T17:13:14.447Z,14.95
2018-03-27T17:15:44.328Z,13.40
2018-03-27T17:21:50.933Z,13.65
2018-03-27T17:24:20.911Z,14.68
2018-03-27T17:26:51.460Z,12.90
2018-03-27T17:29:25.486Z,13.80
2018-03-27T17:31:56.410Z,12.52
2018-03-27T17:38:05.431Z,13.68
2018-03-27T17:46:15.636Z,13.80
2018-03-27T17:48:46.395Z,13.45
2018-03-27T17:59:25.305Z,15.93
2018-03-27T18:01:55.506Z,25.23
2018-03-27T18:04:26.705Z,23.83
2018-03-27T18:06:59.008Z,19.77
2018-03-27T18:09:30.383Z,24.60
2018-03-27T18:12:01.314Z,25.10
2018-03-27T18:14:31.746Z,20.80
2018-03-27T18:17:11.726Z,23.77
2018-03-27T18:19:45.077Z,33.10
2018-03-27T18:22:15.284Z,33.83
2018-03-27T18:24:45.252Z,28.27
2018-03-27T18:27:15.427Z,24.98
2018-03-27T18:29:45.606Z,17.25
2018-03-27T18:32:16.139Z,19.27
2018-03-27T18:34:46.605Z,14.57
2018-03-27T18:37:16.701Z,14.73
2018-03-27T18:39:47.167Z,15.02
2018-03-27T18:42:17.383Z,13.52
2018-03-27T18:44:48.282Z,14.48
2018-03-27T18:47:18.459Z,13.90
2018-03-27T18:49:53.088Z,14.40
2018-03-27T18:52:22.749Z,14.20
2018-03-27T18:54:54.684Z,15.35
2018-03-27T18:57:24.783Z,16.12
2018-03-27T19:00:00.160Z,17.77
2018-03-27T19:02:30.387Z,19.20
2018-03-27T19:05:01.205Z,17.33
2018-03-27T19:07:31.458Z,17.30
2018-03-27T19:10:01.835Z,17.37
2018-03-27T19:12:31.808Z,17.10
2018-03-27T19:15:01.909Z,17.00
2018-03-27T19:17:32.646Z,18.15
2018-03-27T19:20:02.956Z,17.85
2018-03-27T19:22:33.171Z,17.48
2018-03-27T19:25:03.464Z,17.33
2018-03-27T19:27:33.272Z,17.25
2018-03-27T19:30:03.561Z,17.12
2018-03-27T19:32:34.474Z,18.05
2018-03-27T19:35:04.228Z,18.17
2018-03-27T19:37:34.068Z,17.65
2018-03-27T19:40:04.395Z,16.92
2018-03-27T19:42:34.927Z,18.55
2018-03-27T19:45:04.587Z,16.60
2018-03-27T19:47:34.517Z,17.48
2018-03-27T19:50:03.918Z,17.50
2018-03-27T19:52:33.998Z,18.35
2018-03-27T19:55:04.112Z,18.50
2018-03-27T19:57:34.080Z,18.15
2018-03-27T20:00:03.758Z,19.35
2018-03-27T20:02:37.873Z,19.23
2018-03-27T20:05:08.179Z,19.30
2018-03-27T20:07:38.229Z,19.02
2018-03-27T20:10:08.253Z,21.80
2018-03-27T20:12:38.702Z,21.12
2018-03-27T20:15:08.830Z,20.85
2018-03-27T20:17:38.927Z,21.80
2018-03-27T20:20:09.015Z,20.85
2018-03-27T20:22:39.150Z,20.37
2018-03-27T20:25:13.290Z,22.65
2018-03-27T20:27:43.173Z,21.10
2018-03-27T20:30:13.069Z,21.77
2018-03-27T20:32:42.998Z,20.45
2018-03-27T20:35:13.066Z,20.60
2018-03-27T20:37:43.031Z,20.52
2018-03-27T20:40:13.057Z,19.23
2018-03-27T20:42:43.330Z,22.08
2018-03-27T20:45:13.500Z,20.77
2018-03-27T20:47:43.396Z,20.77
2018-03-27T20:50:14.336Z,20.62
2018-03-27T20:52:45.192Z,21.00
2018-03-27T20:58:23.087Z,19.30
2018-03-27T21:06:12.667Z,20.45
2018-03-27T21:08:43.235Z,19.98
2018-03-27T21:11:22.609Z,20.45
2018-03-27T21:13:52.614Z,21.83
2018-03-27T21:16:23.695Z,19.75
2018-03-27T21:18:55.600Z,19.12
2018-03-27T21:23:59.955Z,21.27
2018-03-27T21:26:30.012Z,18.83
2018-03-27T21:29:00.128Z,19.55
2018-03-27T21:31:30.220Z,20.40
2018-03-27T21:34:00.375Z,19.23
2018-03-27T21:39:18.952Z,20.85
2018-03-27T21:41:49.360Z,21.58
2018-03-27T21:44:19.354Z,19.98
2018-03-27T21:49:24.026Z,18.67
2018-03-27T21:51:54.213Z,21.40
2018-03-27T21:54:24.263Z,20.73
2018-03-27T21:56:54.355Z,19.77
2018-03-27T21:59:29.079Z,22.42
2018-03-27T22:01:59.708Z,22.58
2018-03-27T22:04:29.823Z,20.23
2018-03-27T22:06:59.748Z,21.25
2018-03-27T22:09:30.079Z,21.65
2018-03-27T22:12:00.638Z,20.17
2018-03-27T22:17:04.134Z,21.83
2018-03-27T22:19:35.152Z,22.02
2018-03-27T22:24:42.780Z,25.12
2018-03-27T22:29:49.211Z,23.17
2018-03-27T22:32:19.457Z,22.50
2018-03-27T22:34:51.338Z,22.83
2018-03-27T22:37:21.888Z,22.42
2018-03-27T22:39:58.485Z,23.42
2018-03-27T22:42:29.127Z,22.33
2018-03-27T22:45:00.927Z,20.50
2018-03-27T22:47:30.909Z,22.15
2018-03-27T22:50:00.982Z,20.50
2018-03-27T22:52:31.454Z,22.62
2018-03-27T22:55:01.576Z,23.52
2018-03-27T22:57:31.719Z,21.40
2018-03-27T23:00:01.764Z,22.13
2018-03-27T23:02:37.066Z,22.35
2018-03-27T23:05:07.110Z,21.05
2018-03-27T23:07:37.787Z,21.30
2018-03-27T23:10:07.731Z,21.77
2018-03-27T23:12:38.561Z,21.90
2018-03-27T23:15:08.737Z,21.95
